Mardan, Pakistan
Current Conditions -  °F | °C
As of 6:00 PM on Thursday 18 Dec 2014 (Local Time) from OPPS Reporting Station
Haze Haze  
Wind Chill: 54°   Ceiling: Unl
Heat Index: 54°   Visibility: 0.93mi
Dew Point: 43°   Wind: 0mph
Humidity: 67%   Direction: NA
Pressure: NA   Gusts: NA
Location:  34.2°N, 72.04°E
Report Text: OPPS 181300Z 00000KT 1500 HZ SKC 12/06 Q1019.1
Loading
Personal Weather Stations






























Interactive Weather Map New forecast layout! Learn more

10-Day Weather Forecast

Advertisements
Track Severe Weather on mobile